San Gregorio, California
Current Conditions -  °F | °C
As of 6:15 AM on Monday 20 Oct 2014 (Local Time) from KHAF Reporting Station
Scattered Clouds Scattered Clouds  
Wind Chill: 59°   Ceiling: Unl
Heat Index: 59°   Visibility: 8mi
Dew Point: 55°   Wind: 6mph
Humidity: 88%   Direction: 140°SE
Pressure: 29.92"   Gusts: NA
Location:  37.33°N, 122.39°W
Report Text: KHAF 201315Z AUTO 14005KT 8SM FEW003 SCT027 15/13 A2992 RMK AO2
Loading
Personal Weather Stations






























Interactive Weather Map
Tropical Storm Tracking
New forecast layout! Learn more

10-Day Weather Forecast

Advertisements
Track Severe Weather on mobile